Time;durP1;ratioP1;P1;durP2;ratioP2;P2;SDS_P1;SDS_P2;PMS_P1;PMS_P2;Temp;Humidity;BMP_temperature;BMP_pressure;BME280_temperature;BME280_humidity;BME280_pressure;Samples;Min_cycle;Max_cycle;Signal;HPM_P1;HPM_P2
2022/10/05 00:00:16;;;;;;;7.27;2.30;;;17.20;76.10;;;;;;5052776;28;20255;-68
2022/10/05 00:02:44;;;;;;;10.27;2.23;;;17.20;76.70;;;;;;5053954;28;20191;-68
2022/10/05 00:05:23;;;;;;;9.30;2.67;;;17.20;76.90;;;;;;5053358;28;20225;-67
2022/10/05 00:07:51;;;;;;;14.17;2.33;;;17.20;77.90;;;;;;5054721;28;20180;-66
2022/10/05 00:10:19;;;;;;;8.47;2.43;;;17.20;77.60;;;;;;5054868;28;20298;-67
2022/10/05 00:12:48;;;;;;;11.40;2.77;;;17.20;78.20;;;;;;5034872;28;20218;-68
2022/10/05 00:15:22;;;;;;;14.17;2.10;;;17.20;78.10;;;;;;5041880;28;20218;-67
2022/10/05 00:17:50;;;;;;;11.67;2.23;;;17.20;78.70;;;;;;5055070;28;20183;-68
2022/10/05 00:20:25;;;;;;;12.60;2.40;;;17.10;78.80;;;;;;5053734;28;20206;-68
2022/10/05 00:23:03;;;;;;;8.27;3.20;;;17.20;79.40;;;;;;5051535;28;20186;-68
2022/10/05 00:25:31;;;;;;;12.77;3.40;;;17.10;80.00;;;;;;5054733;28;20175;-67
2022/10/05 00:28:00;;;;;;;12.80;3.33;;;17.00;80.30;;;;;;5054437;28;20172;-68
2022/10/05 00:30:33;;;;;;;14.80;3.23;;;16.90;81.60;;;;;;5054374;28;20182;-68
2022/10/05 00:33:00;;;;;;;15.17;3.27;;;16.80;83.00;;;;;;5054314;28;20273;-67
2022/10/05 00:35:29;;;;;;;15.53;2.90;;;16.70;83.70;;;;;;5054672;28;20171;-68
2022/10/05 00:37:56;;;;;;;12.93;3.03;;;16.60;84.30;;;;;;5054395;28;20181;-67
2022/10/05 00:40:36;;;;;;;13.63;2.97;;;16.40;84.90;;;;;;5053549;28;20275;-69
2022/10/05 00:43:06;;;;;;;19.10;3.10;;;16.30;85.40;;;;;;5053456;28;20229;-68
2022/10/05 00:45:39;;;;;;;15.67;3.27;;;16.20;86.10;;;;;;5054294;28;20177;-67
2022/10/05 00:48:28;;;;;;;11.70;3.10;;;16.20;86.60;;;;;;5045732;28;20571;-68
2022/10/05 00:51:09;;;;;;;15.50;2.97;;;16.20;87.00;;;;;;5034263;28;20657;-67
2022/10/05 00:54:12;;;;;;;19.47;3.20;;;16.10;86.70;;;;;;5034314;28;20183;-68
2022/10/05 00:57:05;;;;;;;12.70;2.60;;;16.00;86.70;;;;;;5048449;28;20236;-67
2022/10/05 00:59:35;;;;;;;16.37;2.93;;;16.10;86.30;;;;;;5052933;28;20261;-70
2022/10/05 01:02:39;;;;;;;12.67;2.73;;;16.10;86.30;;;;;;5052884;28;20178;-69
2022/10/05 01:05:29;;;;;;;15.10;3.43;;;16.00;86.20;;;;;;5054295;28;20177;-68
2022/10/05 01:08:32;;;;;;;11.37;2.30;;;16.00;86.40;;;;;;5032519;28;20208;-67
2022/10/05 01:11:09;;;;;;;18.83;3.47;;;16.00;86.90;;;;;;5034024;28;20180;-71
2022/10/05 01:13:59;;;;;;;12.97;3.00;;;16.00;86.70;;;;;;5048967;28;20185;-67
2022/10/05 01:16:47;;;;;;;14.43;3.40;;;16.10;86.70;;;;;;5053719;28;20228;-69
2022/10/05 01:19:40;;;;;;;12.67;3.13;;;16.20;86.70;;;;;;5053714;28;20653;-67
2022/10/05 01:22:17;;;;;;;19.17;3.77;;;16.30;86.90;;;;;;5052543;28;20171;-69
2022/10/05 01:25:05;;;;;;;23.17;4.30;;;16.40;86.60;;;;;;5051972;28;20529;-69
2022/10/05 01:27:46;;;;;;;19.63;4.03;;;16.40;87.00;;;;;;5053531;28;20186;-69
2022/10/05 01:30:18;;;;;;;14.87;3.50;;;16.30;87.80;;;;;;5052912;28;20198;-70
2022/10/05 01:33:07;;;;;;;15.80;3.13;;;16.00;87.60;;;;;;5051921;28;20727;-69
2022/10/05 01:35:57;;;;;;;20.10;4.10;;;15.90;88.40;;;;;;5052044;28;20182;-68
2022/10/05 01:38:50;;;;;;;17.90;3.67;;;15.80;88.70;;;;;;5045936;28;20184;-69
2022/10/05 01:41:53;;;;;;;19.13;4.07;;;15.50;88.70;;;;;;5053293;28;20587;-70
2022/10/05 01:44:42;;;;;;;15.80;3.50;;;15.10;89.40;;;;;;5042173;28;20218;-70
2022/10/05 01:47:33;;;;;;;14.63;3.73;;;14.80;89.30;;;;;;5053052;28;20626;-68
2022/10/05 01:50:03;;;;;;;21.87;4.07;;;14.80;89.70;;;;;;5053073;28;20278;-69
2022/10/05 01:53:00;;;;;;;22.47;4.37;;;14.80;90.30;;;;;;5052807;28;20306;-71
2022/10/05 01:55:41;;;;;;;22.47;4.97;;;14.90;90.40;;;;;;5052811;28;20513;-67
2022/10/05 01:58:23;;;;;;;19.63;4.10;;;15.00;90.60;;;;;;5052556;28;20167;-68
2022/10/05 02:01:00;;;;;;;17.60;3.77;;;14.90;90.50;;;;;;5052338;28;20184;-68
2022/10/05 02:03:35;;;;;;;14.00;4.17;;;14.90;90.90;;;;;;5052785;28;20282;-69
2022/10/05 02:06:36;;;;;;;21.50;4.20;;;14.90;91.40;;;;;;5052429;28;20176;-69
2022/10/05 02:09:11;;;;;;;17.70;4.13;;;14.90;91.30;;;;;;5047580;28;20186;-69
2022/10/05 02:11:43;;;;;;;28.93;4.73;;;15.00;91.50;;;;;;5048682;28;20204;-69
2022/10/05 02:14:14;;;;;;;23.17;4.07;;;15.10;91.40;;;;;;5053208;28;20186;-70
2022/10/05 02:16:47;;;;;;;22.27;4.20;;;15.20;90.90;;;;;;5049646;28;20650;-69
2022/10/05 02:19:30;;;;;;;25.40;4.27;;;15.30;90.70;;;;;;5047496;28;20199;-70
2022/10/05 02:22:08;;;;;;;19.03;3.87;;;15.40;89.80;;;;;;5042995;28;20180;-69
2022/10/05 02:24:40;;;;;;;16.30;3.83;;;15.60;89.60;;;;;;5051682;28;20178;-68
2022/10/05 02:27:10;;;;;;;23.87;3.60;;;15.70;89.50;;;;;;5052651;28;20647;-68
2022/10/05 02:29:44;;;;;;;16.97;3.80;;;15.80;88.00;;;;;;5054849;28;20180;-69
2022/10/05 02:32:24;;;;;;;22.97;3.73;;;15.80;87.30;;;;;;5052946;28;20221;-70
2022/10/05 02:34:51;;;;;;;16.43;3.97;;;15.90;87.00;;;;;;5052221;28;20173;-69
2022/10/05 02:37:40;;;;;;;23.60;4.27;;;16.10;87.70;;;;;;5052029;28;20227;-68
2022/10/05 02:40:37;;;;;;;20.27;3.33;;;16.20;87.60;;;;;;5039529;28;20178;-69
2022/10/05 02:43:39;;;;;;;18.47;3.50;;;16.20;87.10;;;;;;5052801;28;20235;-69
2022/10/05 02:46:12;;;;;;;16.90;3.27;;;16.30;87.30;;;;;;5052018;28;20213;-69
2022/10/05 02:48:39;;;;;;;22.17;3.50;;;16.30;86.80;;;;;;5047035;28;20268;-69
2022/10/05 02:51:23;;;;;;;18.67;3.40;;;16.30;86.70;;;;;;5050932;28;20188;-70
2022/10/05 02:54:08;;;;;;;21.70;3.50;;;16.30;86.40;;;;;;5047742;28;20176;-70
2022/10/05 02:56:58;;;;;;;26.47;4.63;;;16.20;86.50;;;;;;5051396;28;20650;-69
2022/10/05 02:59:54;;;;;;;18.70;3.40;;;16.20;86.80;;;;;;5051545;28;20179;-70
2022/10/05 03:02:28;;;;;;;18.53;3.67;;;16.10;87.00;;;;;;5032111;28;20178;-68
2022/10/05 03:04:58;;;;;;;15.97;3.50;;;16.00;87.40;;;;;;5048890;28;20171;-70
2022/10/05 03:08:02;;;;;;;30.80;4.10;;;16.00;87.00;;;;;;5050232;28;20210;-70
2022/10/05 03:10:32;;;;;;;25.10;3.93;;;16.10;87.30;;;;;;5045766;28;20188;-70
2022/10/05 03:13:12;;;;;;;20.13;3.90;;;16.20;87.40;;;;;;5047060;28;20219;-67
2022/10/05 03:16:10;;;;;;;21.13;4.17;;;16.20;87.10;;;;;;5054074;28;20313;-67
2022/10/05 03:18:50;;;;;;;15.33;3.03;;;16.30;87.20;;;;;;5054363;28;20187;-68
2022/10/05 03:21:50;;;;;;;18.83;3.37;;;16.30;86.70;;;;;;5054706;28;20179;-68
2022/10/05 03:24:29;;;;;;;15.40;2.90;;;16.40;86.40;;;;;;5055623;28;20187;-68
2022/10/05 03:27:24;;;;;;;18.10;3.97;;;16.40;85.20;;;;;;5043226;28;20222;-67
2022/10/05 03:30:01;;;;;;;21.90;3.50;;;16.50;85.50;;;;;;5036336;28;20177;-67
2022/10/05 03:32:55;;;;;;;22.77;3.73;;;16.40;84.40;;;;;;5055212;28;20232;-67
2022/10/05 03:35:44;;;;;;;17.63;4.80;;;16.50;84.50;;;;;;5039570;28;20182;-68
2022/10/05 03:38:41;;;;;;;14.83;3.17;;;16.50;83.90;;;;;;5049855;28;20184;-67
2022/10/05 03:41:27;;;;;;;16.83;3.10;;;16.50;83.90;;;;;;5054848;28;20185;-68
2022/10/05 03:44:04;;;;;;;13.23;3.73;;;16.50;83.80;;;;;;5053907;28;20222;-67
2022/10/05 03:47:09;;;;;;;17.27;3.47;;;16.40;84.00;;;;;;5054665;28;20595;-69
2022/10/05 03:49:43;;;;;;;15.77;3.30;;;16.50;85.00;;;;;;5053139;28;20180;-67
2022/10/05 03:52:18;;;;;;;15.87;3.77;;;16.30;85.40;;;;;;5054174;28;20638;-66
2022/10/05 03:55:01;;;;;;;19.40;4.00;;;16.40;86.10;;;;;;5050274;28;20203;-67
2022/10/05 03:57:34;;;;;;;15.90;3.33;;;16.40;86.60;;;;;;5054805;28;20190;-66
2022/10/05 04:00:06;;;;;;;19.03;3.40;;;16.30;86.50;;;;;;5054643;28;20309;-66
2022/10/05 04:02:39;;;;;;;26.10;4.27;;;16.30;86.80;;;;;;5051375;28;20655;-67
2022/10/05 04:05:09;;;;;;;15.50;3.13;;;16.10;86.40;;;;;;5053896;28;20335;-66
2022/10/05 04:08:05;;;;;;;16.37;4.43;;;16.00;86.50;;;;;;5046107;28;20171;-68
2022/10/05 04:10:50;;;;;;;20.50;3.67;;;16.00;86.30;;;;;;5042680;28;20332;-66
2022/10/05 04:13:48;;;;;;;18.77;3.83;;;15.90;86.00;;;;;;5044495;28;20211;-66
2022/10/05 04:16:29;;;;;;;18.37;3.93;;;16.00;86.20;;;;;;5050277;28;20181;-65
2022/10/05 04:19:08;;;;;;;16.77;3.43;;;16.00;86.20;;;;;;5054978;28;20262;-68
2022/10/05 04:21:43;;;;;;;15.50;3.40;;;15.80;87.40;;;;;;5054573;28;20179;-69
2022/10/05 04:24:31;;;;;;;21.57;3.67;;;15.40;88.60;;;;;;5055278;28;20209;-65
2022/10/05 04:27:02;;;;;;;19.10;3.50;;;15.30;89.10;;;;;;5034659;28;20185;-66
2022/10/05 04:30:02;;;;;;;26.20;4.20;;;15.30;89.50;;;;;;5051580;28;20187;-68
2022/10/05 04:32:56;;;;;;;26.63;3.80;;;15.30;89.50;;;;;;5034507;28;20298;-67
2022/10/05 04:35:50;;;;;;;26.43;4.23;;;15.30;89.90;;;;;;5049681;28;20180;-68
2022/10/05 04:38:41;;;;;;;25.30;4.40;;;15.30;90.00;;;;;;5037099;28;20183;-69
2022/10/05 04:41:23;;;;;;;26.43;4.10;;;15.30;90.40;;;;;;5045274;28;20233;-69
2022/10/05 04:44:15;;;;;;;24.47;3.90;;;15.40;90.40;;;;;;5070108;28;20216;-67
2022/10/05 04:47:17;;;;;;;21.93;3.60;;;15.40;90.40;;;;;;5051598;28;20192;-67
2022/10/05 04:49:50;;;;;;;23.93;4.10;;;15.50;90.50;;;;;;5039662;28;20517;-68
2022/10/05 04:52:35;;;;;;;27.67;4.03;;;15.40;90.10;;;;;;5053640;28;20253;-67
2022/10/05 04:55:21;;;;;;;18.77;3.90;;;15.50;90.30;;;;;;5039472;28;20254;-67
2022/10/05 04:58:28;;;;;;;15.67;3.60;;;15.50;90.20;;;;;;5052849;28;20185;-67
2022/10/05 05:01:31;;;;;;;16.20;3.67;;;15.40;89.90;;;;;;5045928;28;20275;-66
2022/10/05 05:04:33;;;;;;;20.87;3.60;;;15.50;90.10;;;;;;5037829;28;20181;-68
2022/10/05 05:07:18;;;;;;;19.50;3.30;;;15.50;90.10;;;;;;5053629;28;20278;-67
2022/10/05 05:09:59;;;;;;;16.77;3.27;;;15.40;90.10;;;;;;5049978;28;20199;-68
2022/10/05 05:12:49;;;;;;;13.40;3.43;;;15.30;89.90;;;;;;5040067;28;20212;-66
2022/10/05 05:15:25;;;;;;;22.50;3.70;;;15.20;89.70;;;;;;5050222;28;20270;-67
2022/10/05 05:18:29;;;;;;;16.33;3.13;;;15.20;89.90;;;;;;5053887;28;20686;-67
2022/10/05 05:21:12;;;;;;;13.83;2.83;;;15.20;89.90;;;;;;5041153;28;20181;-67
2022/10/05 05:24:02;;;;;;;21.03;4.23;;;15.20;90.00;;;;;;5045359;28;20196;-67
2022/10/05 05:26:54;;;;;;;27.57;4.50;;;15.20;89.80;;;;;;5052149;28;20262;-67
2022/10/05 05:29:33;;;;;;;21.43;3.73;;;15.20;89.70;;;;;;5053196;28;20205;-67
2022/10/05 05:32:37;;;;;;;26.70;4.87;;;15.30;89.80;;;;;;5051739;28;20228;-66
2022/10/05 05:35:22;;;;;;;27.70;4.20;;;15.20;89.90;;;;;;5047552;28;20254;-66
2022/10/05 05:38:15;;;;;;;31.40;5.30;;;15.20;89.90;;;;;;5034065;28;20177;-68
2022/10/05 05:41:16;;;;;;;21.23;4.07;;;15.30;90.10;;;;;;5045787;28;20654;-67
2022/10/05 05:44:01;;;;;;;21.73;4.47;;;15.20;89.80;;;;;;5042199;28;20402;-68
2022/10/05 05:46:36;;;;;;;24.80;5.17;;;15.20;89.70;;;;;;5049213;28;20188;-68
2022/10/05 05:49:17;;;;;;;20.20;3.70;;;15.20;89.60;;;;;;5051315;28;20189;-68
2022/10/05 05:52:10;;;;;;;22.60;3.27;;;15.20;89.10;;;;;;5052755;28;20223;-71
2022/10/05 05:54:52;;;;;;;16.90;3.57;;;15.30;89.00;;;;;;5042820;28;20518;-68
2022/10/05 05:57:28;;;;;;;26.47;4.67;;;15.30;88.70;;;;;;5038508;28;20179;-68
2022/10/05 05:59:59;;;;;;;24.70;4.70;;;15.20;88.90;;;;;;5052227;28;20179;-69
2022/10/05 06:02:53;;;;;;;22.73;4.30;;;15.20;89.10;;;;;;5051510;28;20518;-68
2022/10/05 06:05:43;;;;;;;23.43;4.40;;;15.20;89.30;;;;;;5048544;28;20273;-68
2022/10/05 06:08:16;;;;;;;29.63;4.87;;;15.10;89.10;;;;;;5046539;28;20176;-69
2022/10/05 06:11:26;;;;;;;19.00;3.70;;;15.10;89.60;;;;;;5050392;28;20217;-69
2022/10/05 06:14:00;;;;;;;24.73;3.77;;;15.20;88.80;;;;;;5041100;28;20530;-70
2022/10/05 06:16:36;;;;;;;22.20;4.13;;;15.20;89.20;;;;;;5044723;28;20200;-69
2022/10/05 06:19:19;;;;;;;33.17;4.07;;;15.20;89.50;;;;;;5047056;28;20259;-69
2022/10/05 06:21:58;;;;;;;28.00;5.17;;;15.20;89.30;;;;;;5052846;28;20528;-70
2022/10/05 06:25:00;;;;;;;24.03;4.17;;;15.20;89.40;;;;;;5047519;28;20242;-68
2022/10/05 06:27:36;;;;;;;17.50;4.33;;;15.10;88.90;;;;;;5040073;28;20241;-69
2022/10/05 06:30:03;;;;;;;26.47;4.70;;;15.00;88.90;;;;;;5046186;28;20255;-68
2022/10/05 06:32:51;;;;;;;25.60;4.67;;;15.00;88.90;;;;;;5052011;28;20212;-68
2022/10/05 06:35:31;;;;;;;26.83;4.40;;;15.00;89.10;;;;;;5052959;28;20560;-69
2022/10/05 06:38:25;;;;;;;31.93;5.47;;;14.90;89.20;;;;;;5043203;28;20207;-68
2022/10/05 06:41:22;;;;;;;34.33;4.87;;;14.90;89.70;;;;;;5048084;28;20194;-70
2022/10/05 06:44:20;;;;;;;24.27;4.33;;;14.90;89.90;;;;;;5049365;28;20223;-70
2022/10/05 06:47:05;;;;;;;31.50;5.60;;;14.80;90.10;;;;;;5045238;28;20174;-69
2022/10/05 06:49:45;;;;;;;24.10;4.77;;;14.90;90.10;;;;;;5045562;28;20235;-69
2022/10/05 06:52:57;;;;;;;26.53;4.13;;;14.90;90.10;;;;;;5049802;28;20211;-69
2022/10/05 06:55:45;;;;;;;22.27;4.43;;;15.00;89.90;;;;;;5051930;28;20231;-69
2022/10/05 06:58:49;;;;;;;27.47;4.80;;;15.00;89.60;;;;;;5052895;28;20646;-69
2022/10/05 07:01:32;;;;;;;25.73;4.70;;;14.90;89.00;;;;;;5057261;28;20614;-71
2022/10/05 07:04:08;;;;;;;29.00;5.23;;;15.00;89.30;;;;;;5053897;28;20187;-70
2022/10/05 07:06:48;;;;;;;24.67;5.10;;;15.00;89.40;;;;;;5058355;28;20210;-69
2022/10/05 07:09:27;;;;;;;26.23;4.70;;;15.00;89.30;;;;;;5055646;28;20638;-69
2022/10/05 07:12:18;;;;;;;18.93;3.93;;;14.90;89.00;;;;;;5055562;28;20621;-71
2022/10/05 07:14:59;;;;;;;19.67;4.10;;;14.90;88.80;;;;;;5044721;28;20658;-69
2022/10/05 07:17:46;;;;;;;17.30;3.97;;;14.80;88.90;;;;;;5052883;28;20237;-69
2022/10/05 07:20:22;;;;;;;20.37;4.17;;;14.80;89.20;;;;;;5044733;28;20196;-69
2022/10/05 07:23:08;;;;;;;14.67;3.53;;;14.80;89.30;;;;;;5053263;28;20277;-70
2022/10/05 07:25:52;;;;;;;24.67;4.73;;;14.80;89.30;;;;;;5050929;28;20176;-69
2022/10/05 07:28:38;;;;;;;27.57;4.33;;;14.80;89.40;;;;;;5051826;28;20917;-68
2022/10/05 07:31:11;;;;;;;26.20;4.83;;;14.80;89.60;;;;;;5055030;28;20202;-68
2022/10/05 07:34:07;;;;;;;22.83;5.33;;;14.80;89.90;;;;;;5055196;28;20278;-68
2022/10/05 07:40:12;;;;;;;36.57;6.27;;;14.70;90.40;;;;;;5047534;28;20202;-69
2022/10/05 07:42:43;;;;;;;30.87;5.23;;;14.70;90.60;;;;;;5046221;28;20566;-69
2022/10/05 07:45:34;;;;;;;25.43;5.50;;;14.70;90.70;;;;;;5048534;28;20184;-70
2022/10/05 07:48:15;;;;;;;31.07;4.93;;;14.80;90.80;;;;;;5045456;28;20226;-69
2022/10/05 07:50:56;;;;;;;27.10;5.43;;;14.80;90.80;;;;;;5052937;28;20673;-69
2022/10/05 07:53:41;;;;;;;24.50;4.70;;;14.80;91.00;;;;;;5054903;28;20272;-68
2022/10/05 07:56:24;;;;;;;28.40;5.07;;;14.70;90.90;;;;;;5054378;28;20172;-69
2022/10/05 07:59:06;;;;;;;27.20;4.90;;;14.70;90.80;;;;;;5054331;28;20651;-69
2022/10/05 08:01:42;;;;;;;30.63;4.40;;;14.70;90.30;;;;;;5050795;28;20188;-69
2022/10/05 08:04:19;;;;;;;28.27;5.00;;;14.80;90.20;;;;;;5054308;28;20254;-70
2022/10/05 08:07:06;;;;;;;22.93;4.40;;;14.80;90.00;;;;;;5053459;28;20173;-69
2022/10/05 08:09:56;;;;;;;35.73;5.50;;;14.80;89.90;;;;;;5054640;28;20214;-69
2022/10/05 08:12:32;;;;;;;20.07;4.83;;;14.80;89.90;;;;;;5048269;28;20703;-71
2022/10/05 08:15:20;;;;;;;23.17;4.90;;;14.80;89.80;;;;;;5054562;28;20200;-70
2022/10/05 08:18:01;;;;;;;28.03;5.57;;;14.80;89.60;;;;;;5053062;28;20183;-69
2022/10/05 08:20:29;;;;;;;29.80;5.63;;;14.80;89.60;;;;;;5054267;28;20176;-69
2022/10/05 08:23:19;;;;;;;26.77;4.93;;;14.80;89.60;;;;;;5054602;28;20646;-69
2022/10/05 08:26:03;;;;;;;30.90;5.43;;;14.80;89.60;;;;;;5056867;28;20238;-70
2022/10/05 08:28:36;;;;;;;30.60;4.53;;;14.80;89.80;;;;;;5041425;28;20269;-69
2022/10/05 08:31:22;;;;;;;25.90;5.03;;;14.80;90.10;;;;;;5054141;28;20176;-70
2022/10/05 08:34:16;;;;;;;26.50;4.83;;;14.80;90.10;;;;;;5040079;28;20180;-67
2022/10/05 08:36:59;;;;;;;29.17;5.80;;;14.80;90.20;;;;;;5049241;28;20188;-69
2022/10/05 08:39:39;;;;;;;32.07;5.20;;;14.80;90.40;;;;;;5052058;28;20520;-68
2022/10/05 08:42:35;;;;;;;30.97;5.93;;;14.80;90.50;;;;;;5052904;28;20559;-68
2022/10/05 08:45:02;;;;;;;33.47;5.37;;;14.80;90.70;;;;;;5056366;28;20210;-68
2022/10/05 08:47:41;;;;;;;27.77;5.70;;;14.80;90.70;;;;;;5053371;28;20165;-68
2022/10/05 08:50:26;;;;;;;32.23;6.00;;;14.80;90.70;;;;;;5051887;28;20176;-69
2022/10/05 08:53:00;;;;;;;28.07;4.70;;;14.80;90.50;;;;;;5053750;28;20294;-68
2022/10/05 08:55:32;;;;;;;28.73;5.17;;;14.80;90.30;;;;;;5053675;28;20179;-69
2022/10/05 08:58:20;;;;;;;27.47;5.60;;;14.80;90.20;;;;;;5033558;28;20512;-69
2022/10/05 09:01:08;;;;;;;25.17;5.70;;;14.80;90.20;;;;;;5052674;28;20178;-69
2022/10/05 09:03:53;;;;;;;31.17;5.10;;;14.80;90.20;;;;;;5050965;28;20203;-68
2022/10/05 09:06:44;;;;;;;23.93;4.80;;;14.80;90.40;;;;;;5053551;28;20172;-69
2022/10/05 09:09:47;;;;;;;25.77;6.33;;;14.80;90.40;;;;;;5034941;28;20195;-68
2022/10/05 09:12:48;;;;;;;33.80;5.63;;;14.90;90.60;;;;;;5044312;28;20206;-68
2022/10/05 09:15:22;;;;;;;26.47;5.13;;;14.90;90.70;;;;;;5053762;28;20176;-69
2022/10/05 09:18:07;;;;;;;29.07;5.10;;;14.90;90.60;;;;;;5051460;28;20179;-68
2022/10/05 09:20:58;;;;;;;31.60;5.73;;;14.90;90.50;;;;;;5052957;28;20183;-68
2022/10/05 09:23:38;;;;;;;29.47;5.47;;;14.90;90.40;;;;;;5053543;28;20180;-69
2022/10/05 09:26:26;;;;;;;25.50;5.00;;;15.00;90.60;;;;;;5052733;28;20179;-69
2022/10/05 09:29:21;;;;;;;35.13;5.23;;;14.90;90.50;;;;;;5052129;28;20176;-69
2022/10/05 09:31:56;;;;;;;32.00;5.83;;;14.90;90.20;;;;;;5052528;28;20232;-68
2022/10/05 09:34:56;;;;;;;28.70;4.80;;;14.90;90.20;;;;;;5052586;28;20175;-68
2022/10/05 09:37:47;;;;;;;26.50;4.30;;;14.80;90.30;;;;;;5051194;28;20659;-68
2022/10/05 09:40:46;;;;;;;25.37;4.30;;;14.80;90.00;;;;;;5040780;28;20209;-70
2022/10/05 09:43:29;;;;;;;30.50;5.13;;;14.80;90.20;;;;;;5052889;28;20374;-69
2022/10/05 09:46:23;;;;;;;24.03;4.83;;;14.80;90.00;;;;;;5053325;28;20264;-68
2022/10/05 09:49:12;;;;;;;20.13;4.27;;;14.80;90.20;;;;;;5039353;28;20188;-69
2022/10/05 09:51:59;;;;;;;25.27;4.70;;;14.80;89.90;;;;;;5053123;28;20890;-69
2022/10/05 09:54:55;;;;;;;27.40;4.87;;;14.80;89.50;;;;;;5053384;28;20190;-68
2022/10/05 09:58:04;;;;;;;21.43;4.50;;;14.90;89.10;;;;;;5042678;28;20180;-70
2022/10/05 10:00:56;;;;;;;25.97;4.20;;;14.80;89.20;;;;;;5029410;28;20270;-69
2022/10/05 10:04:00;;;;;;;21.13;4.70;;;14.90;89.20;;;;;;5053954;28;20195;-69
2022/10/05 10:07:08;;;;;;;23.00;6.07;;;14.90;89.40;;;;;;5052315;28;20207;-69
2022/10/05 10:09:51;;;;;;;26.80;5.13;;;14.90;89.30;;;;;;5049244;28;20271;-69
2022/10/05 10:12:27;;;;;;;20.47;4.37;;;14.90;89.40;;;;;;5047334;28;20213;-70
2022/10/05 10:15:24;;;;;;;26.37;5.67;;;15.00;89.40;;;;;;5052638;28;20172;-71
2022/10/05 10:18:37;;;;;;;22.97;4.60;;;15.00;89.20;;;;;;5049370;28;20324;-70
2022/10/05 10:21:32;;;;;;;29.13;5.40;;;15.00;89.30;;;;;;5041751;28;20172;-70
2022/10/05 10:24:28;;;;;;;26.77;4.43;;;15.00;89.40;;;;;;5051820;28;20183;-70
2022/10/05 10:27:01;;;;;;;19.83;4.37;;;15.00;89.50;;;;;;5047157;28;20179;-69
2022/10/05 10:29:52;;;;;;;37.33;5.83;;;15.00;89.50;;;;;;5038529;28;20188;-70
2022/10/05 10:32:48;;;;;;;19.83;5.73;;;15.00;89.30;;;;;;5049858;28;20369;-70
2022/10/05 10:35:27;;;;;;;35.80;5.07;;;15.00;89.20;;;;;;5030715;28;20309;-69
2022/10/05 10:38:01;;;;;;;22.17;4.30;;;15.10;89.30;;;;;;5049965;28;20190;-68
2022/10/05 10:40:38;;;;;;;26.87;4.37;;;15.00;89.30;;;;;;5054671;28;20639;-71
2022/10/05 10:43:25;;;;;;;24.07;4.83;;;15.10;89.50;;;;;;5049134;28;20223;-68
2022/10/05 10:46:07;;;;;;;25.83;4.90;;;15.10;89.30;;;;;;5051319;28;20531;-69
2022/10/05 10:48:40;;;;;;;24.43;5.30;;;15.00;89.30;;;;;;5047545;28;20176;-70
2022/10/05 10:51:35;;;;;;;26.20;5.23;;;15.00;89.40;;;;;;5053822;28;20672;-70
2022/10/05 10:54:17;;;;;;;21.80;4.37;;;15.00;88.90;;;;;;5047448;28;20188;-69
2022/10/05 10:56:58;;;;;;;15.80;3.83;;;15.00;88.70;;;;;;5045472;28;20263;-69
2022/10/05 10:59:52;;;;;;;23.07;4.30;;;15.00;88.20;;;;;;5051209;28;20184;-68
2022/10/05 11:02:38;;;;;;;21.07;4.20;;;15.00;87.90;;;;;;5043329;28;20599;-68
2022/10/05 11:05:29;;;;;;;23.43;4.80;;;15.00;88.10;;;;;;5048564;28;20598;-70
2022/10/05 11:08:12;;;;;;;28.63;4.47;;;15.10;88.30;;;;;;5043823;28;20274;-67
2022/10/05 11:11:13;;;;;;;21.43;4.50;;;15.10;88.40;;;;;;5038413;28;20626;-69
2022/10/05 11:14:06;;;;;;;23.83;4.37;;;15.20;88.60;;;;;;5051645;28;20219;-67
2022/10/05 11:17:01;;;;;;;22.53;4.73;;;15.20;88.40;;;;;;5045341;28;20180;-67
2022/10/05 11:19:54;;;;;;;27.27;4.50;;;15.20;88.40;;;;;;5040854;28;20168;-68
2022/10/05 11:22:36;;;;;;;21.70;4.20;;;15.20;88.20;;;;;;5051431;28;20587;-67
2022/10/05 11:25:32;;;;;;;20.07;4.47;;;15.20;87.80;;;;;;5052168;28;20172;-68
2022/10/05 11:28:15;;;;;;;19.57;3.87;;;15.20;87.70;;;;;;5052124;28;20180;-68
2022/10/05 11:30:56;;;;;;;25.10;4.97;;;15.20;87.20;;;;;;5039722;28;20160;-68
2022/10/05 11:33:44;;;;;;;19.67;4.10;;;15.20;87.40;;;;;;5053942;28;20207;-68
2022/10/05 11:36:30;;;;;;;25.40;5.03;;;15.20;87.90;;;;;;5049157;28;20187;-68
2022/10/05 11:39:03;;;;;;;21.20;4.17;;;15.20;87.90;;;;;;5054074;28;20603;-69
2022/10/05 11:41:58;;;;;;;25.70;4.53;;;15.20;87.40;;;;;;5055484;28;20184;-68
2022/10/05 11:44:43;;;;;;;22.27;4.30;;;15.20;87.20;;;;;;5055245;28;20187;-67
2022/10/05 11:47:16;;;;;;;21.00;3.77;;;15.20;87.50;;;;;;5053265;28;20677;-68
2022/10/05 11:49:52;;;;;;;25.23;4.17;;;15.20;87.80;;;;;;5055177;28;20259;-69
2022/10/05 11:52:23;;;;;;;22.60;4.67;;;15.20;87.40;;;;;;5050822;28;20215;-69
2022/10/05 11:54:56;;;;;;;24.20;4.03;;;15.20;87.50;;;;;;5055087;28;20182;-68
2022/10/05 11:57:48;;;;;;;22.30;4.20;;;15.20;87.30;;;;;;5047294;28;20715;-67
2022/10/05 12:00:24;;;;;;;20.20;3.50;;;15.20;87.40;;;;;;5053179;28;20650;-68
2022/10/05 12:03:16;;;;;;;19.43;3.87;;;15.20;87.70;;;;;;5053651;28;20231;-68
2022/10/05 12:05:46;;;;;;;21.57;4.03;;;15.20;88.10;;;;;;5053978;28;20183;-68
2022/10/05 12:08:27;;;;;;;17.30;3.13;;;15.20;88.40;;;;;;5053739;28;20180;-67
2022/10/05 12:11:15;;;;;;;23.90;3.77;;;15.10;87.90;;;;;;5052493;28;20195;-69
2022/10/05 12:13:50;;;;;;;17.20;3.47;;;15.10;87.50;;;;;;5051890;28;20906;-68
2022/10/05 12:16:24;;;;;;;20.97;3.97;;;15.10;87.20;;;;;;5047472;28;20185;-70
2022/10/05 12:18:58;;;;;;;17.50;3.33;;;15.10;87.50;;;;;;5052537;28;20179;-70
2022/10/05 12:21:33;;;;;;;18.70;3.67;;;15.10;87.70;;;;;;5054855;28;20701;-73
2022/10/05 12:24:23;;;;;;;19.10;3.90;;;15.10;87.80;;;;;;5052242;28;20266;-72
2022/10/05 12:27:02;;;;;;;21.83;4.07;;;15.20;88.00;;;;;;5047013;28;20205;-70
2022/10/05 12:29:35;;;;;;;27.07;4.07;;;15.10;88.40;;;;;;5042131;28;20176;-70
2022/10/05 12:32:16;;;;;;;18.73;3.77;;;15.10;88.50;;;;;;5054335;28;20204;-70
2022/10/05 12:34:55;;;;;;;24.40;4.13;;;15.00;88.40;;;;;;5052684;28;20179;-67
2022/10/05 12:37:38;;;;;;;17.57;3.30;;;15.00;88.40;;;;;;5054042;28;20183;-68
2022/10/05 12:40:18;;;;;;;28.83;4.07;;;15.00;88.40;;;;;;5054434;28;20172;-68
2022/10/05 12:43:03;;;;;;;30.00;4.47;;;14.90;88.60;;;;;;5049360;28;20271;-68
2022/10/05 12:45:51;;;;;;;13.23;3.47;;;14.90;88.90;;;;;;5048725;28;20192;-66
2022/10/05 12:48:37;;;;;;;21.87;3.83;;;14.90;89.20;;;;;;5052243;28;20226;-69
2022/10/05 12:51:25;;;;;;;16.47;3.67;;;14.80;89.20;;;;;;5054027;28;20176;-67
2022/10/05 12:54:22;;;;;;;24.50;4.67;;;14.90;89.20;;;;;;5046053;28;20650;-68
2022/10/05 12:57:21;;;;;;;19.40;3.73;;;14.90;89.40;;;;;;5053691;28;20214;-69
2022/10/05 12:59:56;;;;;;;20.40;4.20;;;14.90;89.50;;;;;;5049186;28;20215;-67
2022/10/05 13:02:43;;;;;;;18.97;3.83;;;14.90;89.40;;;;;;5053982;28;20180;-70
2022/10/05 13:05:10;;;;;;;23.77;4.10;;;15.00;89.40;;;;;;5061416;28;20697;-70
2022/10/05 13:07:59;;;;;;;19.20;4.20;;;14.90;89.30;;;;;;5053901;28;20179;-67
2022/10/05 13:10:27;;;;;;;17.53;3.90;;;15.00;89.10;;;;;;5053569;28;20227;-67
2022/10/05 13:13:33;;;;;;;25.03;3.87;;;15.00;89.00;;;;;;5053785;28;20242;-69
2022/10/05 13:16:28;;;;;;;23.43;4.17;;;15.00;88.90;;;;;;5035298;28;20322;-68
2022/10/05 13:18:59;;;;;;;18.93;4.10;;;15.00;88.80;;;;;;5059343;28;20199;-69
2022/10/05 13:21:32;;;;;;;26.73;4.67;;;15.00;88.50;;;;;;5055821;28;20645;-70
2022/10/05 13:24:25;;;;;;;17.47;3.57;;;15.10;88.40;;;;;;5037078;28;20614;-68
2022/10/05 13:27:13;;;;;;;21.93;4.23;;;15.10;88.40;;;;;;5053801;28;20206;-67
2022/10/05 13:29:58;;;;;;;24.37;4.37;;;15.10;88.70;;;;;;5052113;28;20227;-71
2022/10/05 13:32:35;;;;;;;19.50;4.33;;;15.10;88.60;;;;;;5051868;28;20615;-67
2022/10/05 13:35:18;;;;;;;27.57;5.20;;;15.20;88.30;;;;;;5053481;28;20168;-69
2022/10/05 13:38:00;;;;;;;17.87;3.50;;;15.20;88.10;;;;;;5043126;28;20196;-68
2022/10/05 13:40:46;;;;;;;19.33;4.13;;;15.20;87.90;;;;;;5034459;28;20199;-68
2022/10/05 13:43:30;;;;;;;14.33;3.70;;;15.20;87.70;;;;;;5049823;28;20228;-70
2022/10/05 13:46:31;;;;;;;20.80;4.07;;;15.20;88.10;;;;;;5053260;28;20180;-68
2022/10/05 13:49:25;;;;;;;20.63;3.90;;;15.20;88.20;;;;;;5052870;28;20185;-68
2022/10/05 13:52:06;;;;;;;23.77;4.50;;;15.10;88.40;;;;;;5048604;28;20231;-69
2022/10/05 13:54:52;;;;;;;15.47;3.67;;;15.10;88.60;;;;;;5042596;28;20223;-70
2022/10/05 13:57:43;;;;;;;18.13;3.80;;;15.10;88.80;;;;;;5053336;28;20181;-68
2022/10/05 14:00:18;;;;;;;22.90;4.00;;;15.00;88.70;;;;;;5051358;28;20279;-69
2022/10/05 14:02:51;;;;;;;20.63;4.20;;;15.00;88.70;;;;;;5052099;28;20252;-70
2022/10/05 14:05:25;;;;;;;28.27;4.57;;;15.00;88.80;;;;;;5052439;28;20169;-69
2022/10/05 14:08:01;;;;;;;21.17;4.83;;;15.10;88.80;;;;;;5052949;28;20562;-69